createdAt,value
2023-09-16T00:01:08.558Z,15.22
2023-09-16T00:03:11.321Z,15.23
2023-09-16T00:05:19.128Z,15.21
2023-09-16T00:07:24.603Z,15.17
2023-09-16T00:09:29.778Z,15.13
2023-09-16T00:11:37.786Z,15.08
2023-09-16T00:13:45.980Z,15.05
2023-09-16T00:15:52.794Z,15.02
2023-09-16T00:18:00.039Z,15.04
2023-09-16T00:20:06.067Z,15.04
2023-09-16T00:22:15.068Z,15.02
2023-09-16T00:24:20.301Z,15.08
2023-09-16T00:26:25.361Z,15.08
2023-09-16T00:28:31.497Z,15.08
2023-09-16T00:30:37.044Z,15.06
2023-09-16T00:32:42.296Z,15.07
2023-09-16T00:34:44.975Z,15.05
2023-09-16T00:36:50.121Z,15.05
2023-09-16T00:38:59.078Z,15.01
2023-09-16T00:41:04.315Z,15.01
2023-09-16T00:43:06.996Z,14.98
2023-09-16T00:45:13.795Z,14.95
2023-09-16T00:47:18.748Z,14.96
2023-09-16T00:49:23.920Z,14.92
2023-09-16T00:51:29.236Z,14.93
2023-09-16T00:53:35.687Z,14.92
2023-09-16T00:55:41.284Z,14.98
2023-09-16T00:57:51.780Z,15.01
2023-09-16T00:59:57.661Z,15.03
2023-09-16T01:02:04.395Z,15.02
2023-09-16T01:04:11.213Z,15.02
2023-09-16T01:06:18.439Z,15.02
2023-09-16T01:08:24.140Z,14.99
2023-09-16T01:10:29.176Z,14.95
2023-09-16T01:12:34.358Z,14.93
2023-09-16T01:14:39.480Z,14.91
2023-09-16T01:16:50.220Z,14.91
2023-09-16T01:19:06.877Z,14.86
2023-09-16T01:21:12.600Z,14.82
2023-09-16T01:23:21.010Z,14.77
2023-09-16T01:25:28.196Z,14.75
2023-09-16T01:27:33.532Z,14.72
2023-09-16T01:29:39.450Z,14.69
2023-09-16T01:31:42.778Z,14.65
2023-09-16T01:33:52.888Z,14.66
2023-09-16T01:36:09.337Z,14.61
2023-09-16T01:38:17.314Z,14.57
2023-09-16T01:40:24.281Z,14.53
2023-09-16T01:42:35.014Z,14.46
2023-09-16T01:44:45.043Z,14.41
2023-09-16T01:46:50.183Z,14.32
2023-09-16T01:48:58.141Z,14.30
2023-09-16T01:51:03.395Z,14.27
2023-09-16T01:53:08.718Z,14.30
2023-09-16T01:55:13.861Z,14.30
2023-09-16T01:57:18.860Z,14.31
2023-09-16T01:59:25.549Z,14.31
2023-09-16T02:01:30.614Z,14.31
2023-09-16T02:03:36.052Z,14.30
2023-09-16T02:05:41.071Z,14.26
2023-09-16T02:07:48.328Z,14.21
2023-09-16T02:09:54.940Z,14.20
2023-09-16T02:12:00.821Z,14.14
2023-09-16T02:14:06.099Z,14.10
2023-09-16T02:16:14.921Z,14.10
2023-09-16T02:18:19.866Z,14.03
2023-09-16T02:20:25.108Z,14.00
2023-09-16T02:22:30.135Z,13.93
2023-09-16T02:24:36.075Z,13.94
2023-09-16T02:26:41.115Z,13.91
2023-09-16T02:28:46.645Z,13.89
2023-09-16T02:30:52.765Z,13.86
2023-09-16T02:33:00.446Z,13.85
2023-09-16T02:35:05.545Z,13.85
2023-09-16T02:37:12.988Z,13.87
2023-09-16T02:39:18.399Z,13.87
2023-09-16T02:41:23.749Z,13.87
2023-09-16T02:43:28.833Z,13.88
2023-09-16T02:45:34.175Z,13.88
2023-09-16T02:47:39.397Z,13.88
2023-09-16T02:49:47.763Z,13.87
2023-09-16T02:51:52.822Z,13.86
2023-09-16T02:53:59.025Z,13.89
2023-09-16T02:56:04.067Z,13.89
2023-09-16T02:58:09.978Z,13.87
2023-09-16T03:00:18.645Z,13.89
2023-09-16T03:02:24.024Z,13.89
2023-09-16T03:04:29.141Z,13.88
2023-09-16T03:06:36.847Z,13.90
2023-09-16T03:08:42.462Z,13.91
2023-09-16T03:10:47.705Z,13.88
2023-09-16T03:12:52.949Z,13.85
2023-09-16T03:15:01.111Z,13.82
2023-09-16T03:17:07.737Z,13.80
2023-09-16T03:19:15.329Z,13.73
2023-09-16T03:21:19.041Z,13.71
2023-09-16T03:23:26.491Z,13.69
2023-09-16T03:25:33.772Z,13.65
2023-09-16T03:27:39.132Z,13.62
2023-09-16T03:29:44.465Z,13.70
2023-09-16T03:31:49.433Z,13.73
2023-09-16T03:33:57.798Z,13.72
2023-09-16T03:36:02.951Z,13.72
2023-09-16T03:38:08.145Z,13.70
2023-09-16T03:40:16.351Z,13.66
2023-09-16T03:42:21.253Z,13.60
2023-09-16T03:44:26.231Z,13.55
2023-09-16T03:46:32.132Z,13.57
2023-09-16T03:48:37.250Z,13.56
2023-09-16T03:50:42.842Z,13.52
2023-09-16T03:52:45.432Z,13.47
2023-09-16T03:54:53.327Z,13.45
2023-09-16T03:57:01.505Z,13.43
2023-09-16T03:59:06.787Z,13.39
2023-09-16T04:01:12.538Z,13.39
2023-09-16T04:03:17.589Z,13.37
2023-09-16T04:05:23.010Z,13.36
2023-09-16T04:07:28.501Z,13.32
2023-09-16T04:09:30.832Z,13.27
2023-09-16T04:11:37.190Z,13.26
2023-09-16T04:13:44.818Z,13.22
2023-09-16T04:15:49.870Z,13.19
2023-09-16T04:17:56.976Z,13.19
2023-09-16T04:19:59.442Z,13.16
2023-09-16T04:22:04.554Z,13.18
2023-09-16T04:24:07.621Z,13.22
2023-09-16T04:26:15.171Z,13.24
2023-09-16T04:28:20.222Z,13.23
2023-09-16T04:30:28.086Z,13.27
2023-09-16T04:32:33.377Z,13.30
2023-09-16T04:34:38.362Z,13.28
2023-09-16T04:36:46.536Z,13.26
2023-09-16T04:38:51.536Z,13.24
2023-09-16T04:40:56.991Z,13.22
2023-09-16T04:43:05.292Z,13.20
2023-09-16T04:45:11.342Z,13.18
2023-09-16T04:47:20.507Z,13.18
2023-09-16T04:49:26.314Z,13.20
2023-09-16T04:51:31.753Z,13.20
2023-09-16T04:53:37.063Z,13.17
2023-09-16T04:55:43.058Z,13.15
2023-09-16T04:57:46.429Z,13.12
2023-09-16T04:59:52.216Z,13.12
2023-09-16T05:01:57.223Z,13.12
2023-09-16T05:04:04.966Z,13.11
2023-09-16T05:06:10.439Z,13.11
2023-09-16T05:08:15.606Z,13.09
2023-09-16T05:10:20.634Z,13.07
2023-09-16T05:12:25.761Z,13.06
2023-09-16T05:14:31.206Z,13.01
2023-09-16T05:16:33.826Z,12.94
2023-09-16T05:18:39.124Z,12.89
2023-09-16T05:20:48.948Z,12.90
2023-09-16T05:22:57.581Z,12.88
2023-09-16T05:25:00.285Z,12.88
2023-09-16T05:27:05.368Z,12.85
2023-09-16T05:29:10.658Z,12.84
2023-09-16T05:31:16.015Z,12.85
2023-09-16T05:33:24.080Z,12.85
2023-09-16T05:35:29.096Z,12.86
2023-09-16T05:37:36.780Z,12.91
2023-09-16T05:39:43.372Z,12.98
2023-09-16T05:41:50.556Z,13.00
2023-09-16T05:43:56.335Z,13.06
2023-09-16T05:46:03.186Z,13.09
2023-09-16T05:48:09.493Z,13.12
2023-09-16T05:50:14.632Z,13.20
2023-09-16T05:52:19.601Z,13.28
2023-09-16T05:54:29.474Z,13.35
2023-09-16T05:56:38.913Z,13.39
2023-09-16T05:58:44.327Z,13.49
2023-09-16T06:00:57.167Z,13.57
2023-09-16T06:03:02.421Z,13.67
2023-09-16T06:05:08.451Z,13.77
2023-09-16T06:07:14.349Z,13.85
2023-09-16T06:09:19.907Z,13.92
2023-09-16T06:11:30.666Z,14.01
2023-09-16T06:13:36.123Z,14.10
2023-09-16T06:15:41.611Z,14.16
2023-09-16T06:17:49.397Z,14.21
2023-09-16T06:19:57.610Z,14.26
2023-09-16T06:22:02.789Z,14.28
2023-09-16T06:24:09.112Z,14.34
2023-09-16T06:26:14.698Z,14.39
2023-09-16T06:28:22.204Z,14.45
2023-09-16T06:30:27.222Z,14.50
2023-09-16T06:32:32.131Z,14.55
2023-09-16T06:34:37.126Z,14.62
2023-09-16T06:36:42.699Z,14.66
2023-09-16T06:38:48.194Z,14.68
2023-09-16T06:40:53.889Z,14.71
2023-09-16T06:43:01.564Z,14.81
2023-09-16T06:45:10.820Z,14.90
2023-09-16T06:47:15.959Z,14.97
2023-09-16T06:49:21.712Z,15.03
2023-09-16T06:51:26.727Z,15.12
2023-09-16T06:53:33.332Z,15.24
2023-09-16T06:55:39.191Z,15.37
2023-09-16T07:00:12.705Z,15.70
2023-09-16T07:02:20.930Z,15.90
2023-09-16T07:04:29.962Z,16.14
2023-09-16T07:06:35.596Z,16.24
2023-09-16T07:11:19.219Z,16.62
2023-09-16T07:13:24.394Z,16.86
2023-09-16T07:15:29.387Z,17.01
2023-09-16T07:17:40.243Z,17.15
2023-09-16T07:19:45.405Z,17.37
2023-09-16T07:21:50.406Z,17.59
2023-09-16T07:24:03.354Z,17.67
2023-09-16T07:26:08.958Z,17.84
2023-09-16T07:28:14.167Z,17.86
2023-09-16T07:30:19.427Z,17.97
2023-09-16T07:32:24.458Z,18.27
2023-09-16T07:34:32.710Z,18.48
2023-09-16T07:36:37.912Z,18.69
2023-09-16T07:38:43.052Z,18.79
2023-09-16T07:40:48.043Z,18.68
2023-09-16T07:42:55.352Z,18.95
2023-09-16T07:45:00.350Z,18.96
2023-09-16T07:47:05.277Z,18.98
2023-09-16T07:49:10.523Z,19.00
2023-09-16T07:51:18.122Z,19.15
2023-09-16T07:53:23.236Z,19.29
2023-09-16T07:55:30.644Z,19.50
2023-09-16T07:57:35.581Z,19.57
2023-09-16T07:59:38.309Z,19.76
2023-09-16T08:01:45.940Z,19.81
2023-09-16T08:03:51.370Z,20.05
2023-09-16T08:18:32.443Z,20.89
2023-09-16T08:23:35.494Z,21.08
2023-09-16T08:26:12.941Z,21.13
2023-09-16T08:28:43.780Z,20.86
2023-09-16T08:31:02.420Z,20.48
2023-09-16T08:33:34.604Z,20.56
2023-09-16T08:36:01.998Z,20.85
2023-09-16T08:38:29.574Z,21.14
2023-09-16T08:41:08.905Z,21.55
2023-09-16T08:43:45.937Z,21.42
2023-09-16T08:46:19.429Z,21.58
2023-09-16T08:48:38.032Z,21.50
2023-09-16T08:50:44.454Z,21.69
2023-09-16T08:52:56.191Z,21.75
2023-09-16T08:57:31.129Z,22.02
2023-09-16T08:59:49.341Z,22.17
2023-09-16T09:04:32.287Z,22.22
2023-09-16T09:06:48.687Z,22.30
2023-09-16T09:08:57.109Z,22.26
2023-09-16T09:11:05.228Z,22.60
2023-09-16T09:13:27.428Z,22.63
2023-09-16T09:15:38.832Z,22.97
2023-09-16T09:17:50.881Z,23.16
2023-09-16T09:20:04.773Z,23.22
2023-09-16T09:22:11.490Z,23.85
2023-09-16T09:24:17.559Z,24.25
2023-09-16T09:26:35.018Z,24.14
2023-09-16T09:31:12.507Z,24.66
2023-09-16T09:33:26.125Z,24.73
2023-09-16T09:35:52.425Z,24.65
2023-09-16T09:38:04.001Z,24.72
2023-09-16T09:40:11.013Z,24.71
2023-09-16T09:42:23.940Z,25.00
2023-09-16T09:44:56.351Z,24.88
2023-09-16T09:47:19.627Z,25.02
2023-09-16T09:49:25.375Z,24.91
2023-09-16T09:55:48.281Z,25.32
2023-09-16T09:57:59.904Z,25.10
2023-09-16T10:02:55.868Z,25.36
2023-09-16T10:05:20.662Z,25.52
2023-09-16T10:07:35.632Z,25.27
2023-09-16T10:09:49.385Z,25.34
2023-09-16T10:12:01.052Z,25.87
2023-09-16T10:14:14.937Z,25.77
2023-09-16T10:16:40.126Z,25.48
2023-09-16T10:19:03.883Z,25.51
2023-09-16T10:21:17.572Z,25.52
2023-09-16T10:23:44.351Z,25.60
2023-09-16T10:26:02.132Z,25.77
2023-09-16T10:28:22.089Z,25.78
2023-09-16T10:30:51.453Z,26.10
2023-09-16T10:33:19.113Z,26.37
2023-09-16T10:38:07.580Z,26.42
2023-09-16T10:40:32.710Z,26.54
2023-09-16T10:42:44.317Z,26.37
2023-09-16T10:45:14.622Z,26.59
2023-09-16T10:47:50.019Z,26.65
2023-09-16T10:50:14.876Z,26.53
2023-09-16T10:53:22.722Z,26.38
2023-09-16T10:55:46.358Z,26.36
2023-09-16T10:58:33.479Z,26.38
2023-09-16T11:01:00.463Z,26.30
2023-09-16T11:03:10.862Z,26.58
2023-09-16T11:05:30.715Z,26.73
2023-09-16T11:07:38.337Z,26.94
2023-09-16T11:09:54.425Z,26.97
2023-09-16T11:17:12.670Z,27.38
2023-09-16T11:20:02.621Z,27.40
2023-09-16T11:22:29.545Z,27.63
2023-09-16T11:24:47.723Z,27.21
2023-09-16T11:27:03.980Z,27.27
2023-09-16T11:29:29.894Z,27.34
2023-09-16T11:32:07.200Z,26.94
2023-09-16T11:34:58.556Z,26.67
2023-09-16T11:37:08.066Z,26.74
2023-09-16T11:39:28.704Z,26.67
2023-09-16T11:41:46.370Z,26.60
2023-09-16T11:44:39.643Z,26.76
2023-09-16T11:47:08.741Z,26.92
2023-09-16T11:49:30.583Z,27.05
2023-09-16T11:52:06.786Z,27.30
2023-09-16T11:54:32.445Z,27.21
2023-09-16T12:00:03.723Z,27.50
2023-09-16T12:02:26.473Z,27.50
2023-09-16T12:04:48.462Z,27.69
2023-09-16T12:07:21.488Z,27.80
2023-09-16T12:09:58.973Z,27.93
2023-09-16T12:12:33.122Z,27.80
2023-09-16T12:14:47.119Z,27.84
2023-09-16T12:17:15.767Z,27.75
2023-09-16T12:20:05.180Z,27.79
2023-09-16T12:22:30.795Z,27.66
2023-09-16T12:24:47.955Z,27.58
2023-09-16T12:27:23.803Z,27.52
2023-09-16T12:34:47.654Z,27.85
2023-09-16T12:37:28.361Z,27.68
2023-09-16T12:40:06.816Z,27.81
2023-09-16T12:42:18.117Z,27.60
2023-09-16T12:47:11.317Z,27.72
2023-09-16T12:49:25.775Z,27.70
2023-09-16T12:51:47.266Z,27.35
2023-09-16T12:54:21.386Z,27.70
2023-09-16T12:56:37.606Z,27.71
2023-09-16T12:59:03.202Z,27.52
2023-09-16T13:01:12.957Z,27.53
2023-09-16T13:03:52.738Z,27.43
2023-09-16T13:06:04.174Z,27.35
2023-09-16T13:10:45.955Z,27.38
2023-09-16T13:13:02.506Z,27.44
2023-09-16T13:15:17.592Z,27.13
2023-09-16T13:17:25.729Z,27.10
2023-09-16T13:19:44.515Z,27.15
2023-09-16T13:21:58.189Z,27.18
2023-09-16T13:24:05.452Z,26.81
2023-09-16T13:26:17.360Z,26.89
2023-09-16T13:28:24.691Z,26.84
2023-09-16T13:32:55.918Z,26.87
2023-09-16T13:35:19.053Z,27.20
2023-09-16T13:37:25.446Z,27.01
2023-09-16T13:39:50.057Z,26.99
2023-09-16T13:42:06.352Z,26.95
2023-09-16T13:44:16.818Z,26.90
2023-09-16T13:46:50.002Z,27.15
2023-09-16T13:48:57.119Z,26.96
2023-09-16T13:51:07.135Z,27.03
2023-09-16T13:53:29.401Z,26.99
2023-09-16T13:55:52.581Z,27.05
2023-09-16T13:58:00.582Z,27.01
2023-09-16T14:00:06.199Z,27.04
2023-09-16T14:02:26.778Z,27.23
2023-09-16T14:04:42.027Z,27.01
2023-09-16T14:06:55.632Z,26.96
2023-09-16T14:09:05.797Z,26.91
2023-09-16T14:11:28.606Z,27.18
2023-09-16T14:13:37.633Z,27.14
2023-09-16T14:15:44.637Z,27.14
2023-09-16T14:17:50.821Z,27.31
2023-09-16T14:20:04.399Z,27.01
2023-09-16T14:22:30.851Z,26.92
2023-09-16T14:24:47.199Z,26.89
2023-09-16T14:27:03.902Z,26.95
2023-09-16T14:29:10.933Z,26.73
2023-09-16T14:31:21.804Z,26.72
2023-09-16T14:33:29.019Z,26.82
2023-09-16T14:35:46.933Z,26.49
2023-09-16T14:37:56.989Z,26.61
2023-09-16T14:40:06.231Z,26.48
2023-09-16T14:42:16.243Z,26.45
2023-09-16T14:44:22.213Z,26.54
2023-09-16T14:46:41.957Z,26.58
2023-09-16T14:48:49.000Z,26.50
2023-09-16T14:51:01.465Z,26.48
2023-09-16T14:53:17.052Z,26.32
2023-09-16T14:55:28.771Z,26.41
2023-09-16T14:57:35.506Z,26.37
2023-09-16T14:59:42.493Z,26.38
2023-09-16T15:01:49.349Z,26.42
2023-09-16T15:03:56.373Z,26.42
2023-09-16T15:06:04.164Z,26.38
2023-09-16T15:08:14.198Z,26.19
2023-09-16T15:10:20.991Z,26.22
2023-09-16T15:12:32.523Z,26.08
2023-09-16T15:14:40.107Z,26.19
2023-09-16T15:16:46.836Z,26.19
2023-09-16T15:18:53.152Z,25.99
2023-09-16T15:21:02.486Z,26.06
2023-09-16T15:23:12.596Z,26.12
2023-09-16T15:25:27.464Z,26.01
2023-09-16T15:27:39.609Z,25.97
2023-09-16T15:29:49.904Z,25.87
2023-09-16T15:32:13.716Z,25.89
2023-09-16T15:34:26.255Z,25.60
2023-09-16T15:36:43.973Z,25.68
2023-09-16T15:38:52.493Z,25.71
2023-09-16T15:41:08.173Z,25.66
2023-09-16T15:43:17.582Z,25.59
2023-09-16T15:45:37.426Z,25.52
2023-09-16T15:47:44.630Z,25.43
2023-09-16T15:49:58.170Z,25.47
2023-09-16T15:52:09.642Z,25.45
2023-09-16T15:54:20.844Z,25.26
2023-09-16T15:56:33.022Z,25.30
2023-09-16T15:58:43.634Z,25.28
2023-09-16T16:01:00.222Z,25.08
2023-09-16T16:03:11.055Z,24.99
2023-09-16T16:05:17.148Z,24.83
2023-09-16T16:07:34.686Z,24.91
2023-09-16T16:09:43.939Z,24.80
2023-09-16T16:11:51.925Z,24.78
2023-09-16T16:13:56.951Z,24.69
2023-09-16T16:15:59.673Z,24.63
2023-09-16T16:18:05.420Z,24.73
2023-09-16T16:20:11.963Z,24.63
2023-09-16T16:22:18.219Z,24.60
2023-09-16T16:24:23.246Z,24.57
2023-09-16T16:26:29.616Z,24.55
2023-09-16T16:28:37.372Z,24.46
2023-09-16T16:30:45.492Z,24.45
2023-09-16T16:32:56.682Z,24.43
2023-09-16T16:35:04.360Z,24.39
2023-09-16T16:37:10.047Z,24.23
2023-09-16T16:39:15.442Z,24.19
2023-09-16T16:41:21.191Z,24.23
2023-09-16T16:43:26.334Z,24.09
2023-09-16T16:45:32.075Z,24.08
2023-09-16T16:47:38.910Z,24.05
2023-09-16T16:50:01.851Z,23.95
2023-09-16T16:52:09.260Z,23.89
2023-09-16T16:54:15.285Z,23.99
2023-09-16T16:56:17.891Z,23.78
2023-09-16T16:58:23.035Z,23.70
2023-09-16T17:00:31.099Z,23.62
2023-09-16T17:02:39.354Z,23.63
2023-09-16T17:04:44.994Z,23.50
2023-09-16T17:06:52.757Z,23.47
2023-09-16T17:09:02.113Z,23.43
2023-09-16T17:11:07.194Z,23.36
2023-09-16T17:13:13.196Z,23.37
2023-09-16T17:15:18.171Z,23.30
2023-09-16T17:17:26.793Z,23.26
2023-09-16T17:19:34.208Z,23.16
2023-09-16T17:21:40.054Z,23.06
2023-09-16T17:23:46.246Z,22.95
2023-09-16T17:25:51.392Z,22.87
2023-09-16T17:27:56.781Z,22.77
2023-09-16T17:30:02.535Z,22.81
2023-09-16T17:32:09.983Z,22.77
2023-09-16T17:34:19.759Z,22.64
2023-09-16T17:36:27.849Z,22.50
2023-09-16T17:38:33.803Z,22.50
2023-09-16T17:40:38.979Z,22.41
2023-09-16T17:42:44.548Z,22.43
2023-09-16T17:44:49.524Z,22.52
2023-09-16T17:46:52.164Z,22.39
2023-09-16T17:48:57.921Z,22.37
2023-09-16T17:51:03.136Z,22.25
2023-09-16T17:53:10.902Z,22.24
2023-09-16T17:55:18.384Z,22.07
2023-09-16T17:57:25.960Z,21.96
2023-09-16T17:59:33.665Z,21.84
2023-09-16T18:01:36.159Z,21.76
2023-09-16T18:03:41.754Z,21.75
2023-09-16T18:05:49.877Z,21.70
2023-09-16T18:08:02.589Z,21.64
2023-09-16T18:10:12.235Z,21.63
2023-09-16T18:12:20.653Z,21.53
2023-09-16T18:14:26.129Z,21.46
2023-09-16T18:16:33.365Z,21.48
2023-09-16T18:18:38.362Z,21.41
2023-09-16T18:20:49.129Z,21.33
2023-09-16T18:22:59.796Z,21.31
2023-09-16T18:25:10.049Z,21.27
2023-09-16T18:27:19.517Z,21.24
2023-09-16T18:29:25.285Z,21.22
2023-09-16T18:31:48.040Z,21.19
2023-09-16T18:33:54.402Z,21.19
2023-09-16T18:36:00.508Z,21.19
2023-09-16T18:38:19.670Z,21.15
2023-09-16T18:40:25.986Z,21.14
2023-09-16T18:42:33.817Z,21.10
2023-09-16T18:44:41.914Z,21.12
2023-09-16T18:46:47.279Z,21.12
2023-09-16T18:48:50.004Z,21.09
2023-09-16T18:50:56.913Z,21.05
2023-09-16T18:52:59.456Z,21.05
2023-09-16T18:55:05.182Z,20.99
2023-09-16T18:57:10.995Z,21.01
2023-09-16T18:59:19.205Z,20.98
2023-09-16T19:01:24.506Z,20.92
2023-09-16T19:03:29.749Z,20.92
2023-09-16T19:05:40.473Z,20.96
2023-09-16T19:07:49.908Z,20.93
2023-09-16T19:09:57.303Z,20.92
2023-09-16T19:12:02.436Z,20.98
2023-09-16T19:14:10.214Z,20.90
2023-09-16T19:16:17.964Z,20.92
2023-09-16T19:18:24.339Z,20.88
2023-09-16T19:20:30.876Z,20.86
2023-09-16T19:22:36.056Z,20.87
2023-09-16T19:24:54.859Z,20.86
2023-09-16T19:27:09.719Z,20.88
2023-09-16T19:29:14.866Z,20.89
2023-09-16T19:31:22.817Z,20.92
2023-09-16T19:33:29.342Z,20.85
2023-09-16T19:35:36.823Z,20.85
2023-09-16T19:37:42.015Z,20.86
2023-09-16T19:39:47.400Z,20.81
2023-09-16T19:41:52.691Z,20.80
2023-09-16T19:43:58.076Z,20.78
2023-09-16T19:46:04.990Z,20.71
2023-09-16T19:48:13.206Z,20.73
2023-09-16T19:50:18.394Z,20.75
2023-09-16T19:52:26.117Z,20.75
2023-09-16T19:54:33.880Z,20.76
2023-09-16T19:56:48.709Z,20.72
2023-09-16T19:59:01.974Z,20.73
2023-09-16T20:01:07.182Z,20.72
2023-09-16T20:03:14.829Z,20.69
2023-09-16T20:05:22.916Z,20.67
2023-09-16T20:07:28.884Z,20.67
2023-09-16T20:09:33.948Z,20.63
2023-09-16T20:11:39.148Z,20.56
2023-09-16T20:13:44.109Z,20.64
2023-09-16T20:15:49.210Z,20.55
2023-09-16T20:17:56.699Z,20.47
2023-09-16T20:20:05.516Z,20.43
2023-09-16T20:22:12.143Z,20.35
2023-09-16T20:24:24.953Z,20.34
2023-09-16T20:29:15.521Z,20.18
2023-09-16T20:31:34.621Z,20.21
2023-09-16T20:33:39.839Z,20.26
2023-09-16T20:36:02.925Z,20.16
2023-09-16T20:38:15.371Z,20.14
2023-09-16T20:40:23.837Z,20.18
2023-09-16T20:42:29.797Z,20.15
2023-09-16T20:44:38.144Z,20.14
2023-09-16T20:46:46.348Z,20.05
2023-09-16T20:48:55.625Z,20.09
2023-09-16T20:51:22.535Z,20.06
2023-09-16T20:54:12.961Z,19.99
2023-09-16T20:56:41.742Z,19.89
2023-09-16T21:21:00.138Z,19.19
2023-09-16T21:23:13.303Z,19.22
2023-09-16T21:25:23.260Z,19.15
2023-09-16T21:27:28.620Z,19.11
2023-09-16T21:29:37.250Z,19.10
2023-09-16T21:31:59.259Z,19.04
2023-09-16T21:34:07.010Z,18.91
2023-09-16T21:36:14.700Z,19.00
2023-09-16T21:38:20.033Z,18.99
2023-09-16T21:40:30.834Z,18.90
2023-09-16T21:42:36.158Z,18.90
2023-09-16T21:44:44.578Z,18.66
2023-09-16T21:46:53.018Z,18.66
2023-09-16T21:49:00.784Z,18.70
2023-09-16T21:51:07.061Z,18.68
2023-09-16T21:53:12.484Z,18.62
2023-09-16T21:55:17.540Z,18.55
2023-09-16T21:57:25.323Z,18.48
2023-09-16T21:59:32.615Z,18.48
2023-09-16T22:01:39.005Z,18.48
2023-09-16T22:40:04.360Z,18.21
2023-09-16T22:42:59.726Z,18.24
2023-09-16T22:46:12.699Z,18.26
2023-09-16T22:49:16.540Z,18.25
2023-09-16T22:52:20.637Z,18.40
2023-09-16T22:55:25.580Z,18.43
2023-09-16T22:58:39.765Z,18.37
2023-09-16T23:07:32.348Z,18.35
2023-09-16T23:13:57.794Z,18.33
2023-09-16T23:16:00.132Z,18.31
2023-09-16T23:21:37.489Z,18.13
2023-09-16T23:24:24.399Z,18.08
2023-09-16T23:27:17.071Z,18.02
2023-09-16T23:30:34.406Z,18.02
2023-09-16T23:32:56.248Z,17.85
2023-09-16T23:35:48.552Z,17.89
2023-09-16T23:38:31.095Z,17.84
2023-09-16T23:40:58.078Z,17.71
2023-09-16T23:43:30.826Z,17.65
2023-09-16T23:46:13.474Z,17.69
2023-09-16T23:48:30.385Z,17.66
2023-09-16T23:50:49.591Z,17.60
2023-09-16T23:53:26.675Z,17.60
2023-09-16T23:56:00.471Z,17.61
2023-09-16T23:58:18.777Z,17.57
